createdAt,value
2018-03-02T06:39:25.015Z,1388
2018-03-02T06:40:25.054Z,1420
2018-03-02T06:41:25.593Z,1456
2018-03-02T06:42:25.427Z,1500
2018-03-02T06:43:25.406Z,1536
2018-03-02T06:44:25.761Z,1572
2018-03-02T06:45:25.788Z,1612
2018-03-02T06:46:25.566Z,1652
2018-03-02T06:47:25.794Z,1692
2018-03-02T06:48:25.980Z,1728
2018-03-02T06:49:25.527Z,1752
2018-03-02T06:50:25.631Z,1780
2018-03-02T06:51:25.533Z,1816
2018-03-02T06:52:25.819Z,1860
2018-03-02T06:53:25.924Z,1908
2018-03-02T06:54:26.338Z,1960
2018-03-02T06:55:25.930Z,1996
2018-03-02T06:56:26.729Z,2020
2018-03-02T06:57:26.858Z,2048
2018-03-02T06:58:27.523Z,2076
2018-03-02T06:59:27.666Z,2116
2018-03-02T07:00:27.751Z,2152
2018-03-02T07:01:27.034Z,2184
2018-03-02T07:02:27.714Z,2212
2018-03-02T07:03:27.250Z,2244
2018-03-02T07:04:27.689Z,2280
2018-03-02T07:05:28.188Z,2312
2018-03-02T07:06:28.439Z,2344
2018-03-02T07:07:28.356Z,2376
2018-03-02T07:08:28.974Z,2412
2018-03-02T07:09:29.013Z,2444
2018-03-02T07:10:28.764Z,2476
2018-03-02T07:11:28.208Z,2520
2018-03-02T07:12:28.375Z,2564
2018-03-02T07:13:28.564Z,2592
2018-03-02T07:14:29.014Z,2620
2018-03-02T07:15:29.173Z,2644
2018-03-02T07:16:29.153Z,2668
2018-03-02T07:17:29.163Z,2692
2018-03-02T07:18:29.224Z,2724
2018-03-02T07:19:30.122Z,2756
2018-03-02T07:20:28.812Z,2808
2018-03-02T07:21:28.450Z,2844
2018-03-02T07:22:29.198Z,2872
2018-03-02T07:23:29.226Z,2900
2018-03-02T07:24:29.498Z,2928
2018-03-02T07:25:29.251Z,2952
2018-03-02T07:26:29.254Z,2992
2018-03-02T07:27:29.637Z,3064
2018-03-02T07:28:30.098Z,3124
2018-03-02T07:29:30.236Z,3168
2018-03-02T07:30:30.665Z,3196
2018-03-02T07:31:30.681Z,3224
2018-03-02T07:32:29.897Z,3272
2018-03-02T07:33:30.653Z,3396
2018-03-02T07:34:31.157Z,3700
2018-03-02T07:35:30.411Z,4012
2018-03-02T07:36:30.895Z,4148
2018-03-02T07:37:31.823Z,4068
2018-03-02T07:38:31.248Z,4112
2018-03-02T07:39:30.796Z,4136
2018-03-02T07:40:30.891Z,4068
2018-03-02T07:41:31.295Z,4172
2018-03-02T07:42:31.052Z,4304
2018-03-02T07:43:31.453Z,4364
2018-03-02T07:44:31.289Z,4228
2018-03-02T07:45:31.689Z,4320
2018-03-02T07:46:32.341Z,4484
2018-03-02T07:47:31.861Z,4396
2018-03-02T07:48:32.256Z,4284
2018-03-02T07:49:32.363Z,4224
2018-03-02T07:50:32.788Z,4500
2018-03-02T07:51:32.532Z,4736
2018-03-02T07:52:33.596Z,4756
2018-03-02T07:53:33.067Z,4964
2018-03-02T07:54:34.057Z,4956
2018-03-02T07:55:33.895Z,4816
2018-03-02T07:56:34.355Z,4872
2018-03-02T07:57:34.233Z,5236
2018-03-02T07:58:34.456Z,5400
2018-03-02T07:59:33.850Z,5316
2018-03-02T08:00:33.639Z,5284
2018-03-02T08:01:34.186Z,5208
2018-03-02T08:02:34.219Z,5184
2018-03-02T08:03:34.246Z,5144
2018-03-02T08:04:34.439Z,5488
2018-03-02T08:05:34.437Z,5688
2018-03-02T08:06:34.285Z,5672
2018-03-02T08:07:34.526Z,5104
2018-03-02T08:08:34.632Z,4948
2018-03-02T08:09:34.538Z,5000
2018-03-02T08:10:34.461Z,5232
2018-03-02T08:11:35.029Z,5340
2018-03-02T08:12:34.477Z,5296
2018-03-02T08:13:35.996Z,5372
2018-03-02T08:14:35.361Z,5676
2018-03-02T08:15:34.405Z,5828
2018-03-02T08:16:36.422Z,5960
2018-03-02T08:17:35.437Z,6036
2018-03-02T08:18:35.820Z,6368
2018-03-02T08:19:35.316Z,6780
2018-03-02T08:20:36.101Z,6832
2018-03-02T08:21:35.493Z,6840
2018-03-02T08:22:35.426Z,6932
2018-03-02T08:23:35.376Z,7044
2018-03-02T08:24:36.396Z,6932
2018-03-02T08:25:35.659Z,7004
2018-03-02T08:26:36.576Z,6912
2018-03-02T08:27:35.846Z,6872
2018-03-02T08:28:36.653Z,6736
2018-03-02T08:29:35.617Z,6584
2018-03-02T08:30:36.335Z,6600
2018-03-02T08:31:36.893Z,6868
2018-03-02T08:32:36.203Z,6992
2018-03-02T08:33:35.826Z,7164
2018-03-02T08:34:37.450Z,7232
2018-03-02T08:35:38.019Z,7240
2018-03-02T08:36:37.380Z,7372
2018-03-02T08:37:36.839Z,7856
2018-03-02T08:38:37.019Z,8132
2018-03-02T08:39:37.060Z,8400
2018-03-02T08:40:36.711Z,8432
2018-03-02T08:41:37.445Z,8508
2018-03-02T08:42:38.413Z,8600
2018-03-02T08:43:38.186Z,8664
2018-03-02T08:44:39.089Z,8624
2018-03-02T08:45:38.517Z,8752
2018-03-02T08:46:38.246Z,9008
2018-03-02T08:47:38.151Z,9072
2018-03-02T08:48:38.037Z,8948
2018-03-02T08:49:38.350Z,9024
2018-03-02T08:50:38.124Z,9200
2018-03-02T08:51:37.802Z,9456
2018-03-02T08:52:37.699Z,9724
2018-03-02T08:53:38.148Z,10012
2018-03-02T08:54:38.170Z,10072
2018-03-02T08:55:38.319Z,10156
2018-03-02T08:56:39.051Z,10628
2018-03-02T08:57:38.677Z,10784
2018-03-02T08:58:39.129Z,10724
2018-03-02T08:59:38.971Z,10576
2018-03-02T09:00:40.286Z,10736
2018-03-02T09:01:39.509Z,11028
2018-03-02T09:02:38.974Z,11528
2018-03-02T09:03:40.164Z,11764
2018-03-02T09:04:40.428Z,11972
2018-03-02T09:05:39.805Z,11932
2018-03-02T09:06:40.404Z,11920
2018-03-02T09:07:40.458Z,12160
2018-03-02T09:08:39.779Z,12480
2018-03-02T09:09:40.143Z,12704
2018-03-02T09:10:40.013Z,12832
2018-03-02T09:11:40.641Z,12864
2018-03-02T09:12:40.689Z,13056
2018-03-02T09:13:39.956Z,13024
2018-03-02T09:14:40.718Z,13376
2018-03-02T09:15:40.836Z,13920
2018-03-02T09:16:40.501Z,13696
2018-03-02T09:17:41.007Z,14464
2018-03-02T09:18:41.360Z,15264
2018-03-02T09:19:40.871Z,16320
2018-03-02T09:20:41.357Z,17312
2018-03-02T09:21:40.901Z,19328
2018-03-02T09:22:41.536Z,21312
2018-03-02T09:23:41.061Z,25088
2018-03-02T09:24:41.367Z,28160
2018-03-02T09:25:41.241Z,31872
2018-03-02T09:26:41.468Z,32384
2018-03-02T09:27:41.591Z,30688
2018-03-02T09:28:42.004Z,29472
2018-03-02T09:29:42.297Z,28416
2018-03-02T09:30:41.821Z,27360
2018-03-02T09:31:42.053Z,26912
2018-03-02T09:32:42.209Z,26400
2018-03-02T09:33:42.457Z,27296
2018-03-02T09:34:42.922Z,27776
2018-03-02T09:35:43.077Z,26560
2018-03-02T09:36:42.606Z,26848
2018-03-02T09:37:43.110Z,25920
2018-03-02T09:38:42.844Z,26208
2018-03-02T09:39:42.734Z,25984
2018-03-02T09:40:43.006Z,27232
2018-03-02T09:41:43.371Z,26752
2018-03-02T09:42:44.085Z,27680
2018-03-02T09:43:44.433Z,27008
2018-03-02T09:44:44.251Z,25376
2018-03-02T09:45:44.332Z,26976
2018-03-02T09:46:44.411Z,26720
2018-03-02T09:47:44.535Z,26976
2018-03-02T09:48:44.817Z,27040
2018-03-02T09:49:45.111Z,27136
2018-03-02T09:50:45.288Z,26944
2018-03-02T09:51:45.516Z,27136
2018-03-02T09:52:45.275Z,27840
2018-03-02T09:53:45.751Z,26880
2018-03-02T09:54:45.882Z,27584
2018-03-02T09:55:45.772Z,27232
2018-03-02T09:56:46.417Z,27808
2018-03-02T09:57:46.302Z,27328
2018-03-02T09:58:46.576Z,28320
2018-03-02T09:59:46.474Z,29216
2018-03-02T10:00:46.657Z,29344
2018-03-02T10:01:47.084Z,30560
2018-03-02T10:02:46.482Z,30688
2018-03-02T10:03:47.087Z,29504
2018-03-02T10:04:46.510Z,29856
2018-03-02T10:05:47.359Z,31040
2018-03-02T10:06:48.034Z,31744
2018-03-02T10:07:56.773Z,30368
2018-03-02T10:08:50.096Z,30368
2018-03-02T10:09:47.193Z,30656
2018-03-02T10:10:47.186Z,30688
2018-03-02T10:11:47.234Z,32608
2018-03-02T10:12:47.817Z,32704
2018-03-02T10:13:47.272Z,33984
2018-03-02T10:14:48.113Z,36000
2018-03-02T10:15:47.558Z,35328
2018-03-02T10:16:47.584Z,35104
2018-03-02T10:17:47.859Z,32576
2018-03-02T10:18:48.168Z,31264
2018-03-02T10:19:57.188Z,30176
2018-03-02T10:20:59.707Z,30048
2018-03-02T10:21:47.750Z,31456
2018-03-02T10:22:47.973Z,30528
2018-03-02T10:23:48.013Z,32000
2018-03-02T10:24:48.388Z,30752
2018-03-02T10:25:48.676Z,31552
2018-03-02T10:26:48.178Z,31520
2018-03-02T10:27:47.897Z,32768
2018-03-02T10:28:48.449Z,32224
2018-03-02T10:29:48.212Z,31552
2018-03-02T10:30:49.134Z,29312
2018-03-02T10:31:48.867Z,28640
2018-03-02T10:32:49.226Z,30368
2018-03-02T10:33:49.430Z,31392
2018-03-02T10:34:49.297Z,32608
2018-03-02T10:35:49.397Z,32736
2018-03-02T10:36:49.347Z,32448
2018-03-02T10:37:49.326Z,31168
2018-03-02T10:38:49.129Z,31488
2018-03-02T10:39:49.098Z,31808
2018-03-02T10:40:49.309Z,31936
2018-03-02T10:41:49.843Z,32672
2018-03-02T10:42:49.823Z,33280
2018-03-02T10:43:49.622Z,34400
2018-03-02T10:44:49.441Z,32416
2018-03-02T10:45:49.732Z,32448
2018-03-02T10:46:50.244Z,35424
2018-03-02T10:47:50.067Z,35360
2018-03-02T10:48:51.230Z,34816
2018-03-02T10:49:51.130Z,30496
2018-03-02T10:50:51.385Z,17696
2018-03-02T10:51:51.737Z,10712
2018-03-02T10:52:52.226Z,11520
2018-03-02T10:53:50.717Z,10860
2018-03-02T10:54:50.689Z,8496
2018-03-02T10:55:51.624Z,7452
2018-03-02T10:56:51.406Z,7048
2018-03-02T10:57:51.272Z,6952
2018-03-02T10:58:50.777Z,6840
2018-03-02T10:59:51.063Z,6712
2018-03-02T11:00:50.877Z,6672
2018-03-02T11:01:51.447Z,6488
2018-03-02T11:02:51.684Z,6472
2018-03-02T11:03:51.446Z,6456
2018-03-02T11:04:51.313Z,6372
2018-03-02T11:05:51.212Z,6344
2018-03-02T11:06:51.997Z,6296
2018-03-02T11:07:51.670Z,6168
2018-03-02T11:08:51.270Z,6112
2018-03-02T11:09:51.265Z,5896
2018-03-02T11:10:51.340Z,5816
2018-03-02T11:11:52.013Z,5768
2018-03-02T11:12:51.528Z,5788
2018-03-02T11:13:51.772Z,5752
2018-03-02T11:14:51.444Z,5708
2018-03-02T11:15:51.358Z,5672
2018-03-02T11:16:51.280Z,5600
2018-03-02T11:17:50.801Z,5580
2018-03-02T11:18:51.882Z,5576
2018-03-02T11:19:51.672Z,5500
2018-03-02T11:20:52.601Z,5488
2018-03-02T11:21:51.959Z,5544
2018-03-02T11:22:51.700Z,5452
2018-03-02T11:23:52.243Z,5384
2018-03-02T11:24:51.779Z,5352
2018-03-02T11:25:51.732Z,5244
2018-03-02T11:26:52.092Z,5152
2018-03-02T11:27:52.051Z,5088
2018-03-02T11:28:52.168Z,5104
2018-03-02T11:29:51.823Z,5068
2018-03-02T11:30:51.771Z,5024
2018-03-02T11:31:52.514Z,4972
2018-03-02T11:32:52.290Z,4964
2018-03-02T11:33:52.349Z,4948
2018-03-02T11:34:52.494Z,4892
2018-03-02T11:35:52.415Z,4864
2018-03-02T11:36:52.171Z,4788
2018-03-02T11:37:52.285Z,4728
2018-03-02T11:38:53.026Z,4704
2018-03-02T11:39:52.798Z,4676
2018-03-02T11:40:52.602Z,4624
2018-03-02T11:41:53.457Z,4656
2018-03-02T11:42:52.912Z,4632
2018-03-02T11:43:54.244Z,4592
2018-03-02T11:44:55.000Z,4560
2018-03-02T11:45:53.536Z,4508
2018-03-02T11:46:53.400Z,4480
2018-03-02T11:47:53.734Z,4440
2018-03-02T11:48:55.294Z,4424
2018-03-02T11:49:53.865Z,4372
2018-03-02T11:50:54.248Z,4308
2018-03-02T11:51:54.643Z,4308
2018-03-02T11:52:55.394Z,4328
2018-03-02T11:53:55.344Z,4344
2018-03-02T11:54:55.374Z,4280
2018-03-02T11:55:54.814Z,4280
2018-03-02T11:56:55.893Z,4264
2018-03-02T11:57:55.702Z,4260
2018-03-02T11:58:56.609Z,4240
2018-03-02T11:59:56.591Z,4232
2018-03-02T12:00:56.686Z,4188
2018-03-02T12:01:56.605Z,4192
2018-03-02T12:02:56.570Z,4184
2018-03-02T12:03:56.681Z,4140
2018-03-02T12:04:56.892Z,4128
2018-03-02T12:05:56.748Z,4088
2018-03-02T12:06:56.910Z,4044
2018-03-02T12:07:56.582Z,4016
2018-03-02T12:08:56.857Z,4004
2018-03-02T12:09:57.496Z,3964
2018-03-02T12:11:08.944Z,3924
2018-03-02T12:11:56.952Z,3908
2018-03-02T12:12:57.055Z,3880
2018-03-02T12:13:57.736Z,3840
2018-03-02T12:14:57.996Z,3776
2018-03-02T12:15:58.016Z,3684
2018-03-02T12:16:58.536Z,3644
2018-03-02T12:17:58.274Z,3616
2018-03-02T12:18:58.021Z,3620
2018-03-02T12:19:58.384Z,3632
2018-03-02T12:20:58.124Z,3620
2018-03-02T12:21:58.163Z,3624
2018-03-02T12:22:58.520Z,3608
2018-03-02T12:23:58.537Z,3608
2018-03-02T12:24:58.782Z,3572
2018-03-02T12:25:58.293Z,3556
2018-03-02T12:26:58.664Z,3536
2018-03-02T12:27:59.247Z,3508
2018-03-02T12:28:59.016Z,3492
2018-03-02T12:29:59.513Z,3484
2018-03-02T12:30:59.703Z,3484
2018-03-02T12:31:59.550Z,3460
2018-03-02T12:32:59.310Z,3460
2018-03-02T12:33:59.522Z,3440
2018-03-02T12:34:59.572Z,3424
2018-03-02T12:35:59.833Z,3392
2018-03-02T12:36:59.892Z,3368
2018-03-02T12:38:00.392Z,3356
2018-03-02T12:38:59.359Z,3340
2018-03-02T12:40:00.414Z,3312
2018-03-02T12:41:00.115Z,3300
2018-03-02T12:41:59.990Z,3280
2018-03-02T12:43:00.410Z,3244
2018-03-02T12:43:59.834Z,3212
2018-03-02T12:45:00.090Z,3192
2018-03-02T12:46:00.460Z,3176
2018-03-02T12:47:00.470Z,3144
2018-03-02T12:48:00.761Z,3132
2018-03-02T12:49:00.852Z,3108
2018-03-02T12:50:00.924Z,3084
2018-03-02T12:51:00.576Z,3064
2018-03-02T12:52:04.382Z,3056
2018-03-02T12:53:01.059Z,3036
2018-03-02T12:54:01.629Z,3016
2018-03-02T12:55:01.097Z,3008
2018-03-02T12:56:01.214Z,2968
2018-03-02T12:57:01.732Z,2952
2018-03-02T12:58:01.737Z,2936
2018-03-02T12:59:01.543Z,2932
2018-03-02T13:00:14.866Z,2920
2018-03-02T13:01:01.654Z,2904
2018-03-02T13:02:01.485Z,2884
2018-03-02T13:03:02.260Z,2868
2018-03-02T13:04:02.509Z,2816
2018-03-02T13:05:02.582Z,2816
2018-03-02T13:06:02.624Z,2816
2018-03-02T13:07:02.633Z,2832
2018-03-02T13:08:02.336Z,2820
2018-03-02T13:09:03.462Z,2804
2018-03-02T13:10:03.412Z,2796
2018-03-02T13:11:02.843Z,2784
2018-03-02T13:12:02.583Z,2756
2018-03-02T13:13:02.929Z,2740
2018-03-02T13:14:03.273Z,2744
2018-03-02T13:15:03.940Z,2716
2018-03-02T13:16:03.318Z,2680
2018-03-02T13:17:03.906Z,2652
2018-03-02T13:18:03.910Z,2656
2018-03-02T13:19:03.693Z,2660
2018-03-02T13:20:03.969Z,2664
2018-03-02T13:21:03.734Z,2656
2018-03-02T13:22:03.959Z,2640
2018-03-02T13:23:03.760Z,2620
2018-03-02T13:24:03.949Z,2612
2018-03-02T13:25:04.275Z,2612
2018-03-02T13:26:05.294Z,2604
2018-03-02T13:27:03.982Z,2596
2018-03-02T13:28:04.352Z,2584
2018-03-02T13:29:04.531Z,2576
2018-03-02T13:30:04.388Z,2564
2018-03-02T13:31:04.468Z,2564
2018-03-02T13:32:04.769Z,2560
2018-03-02T13:33:04.002Z,2552
2018-03-02T13:34:04.652Z,2548
2018-03-02T13:35:04.659Z,2536
2018-03-02T13:36:05.189Z,2520
2018-03-02T13:37:05.479Z,2504
2018-03-02T13:38:04.376Z,2484
2018-03-02T13:39:04.657Z,2464
2018-03-02T13:40:04.487Z,2436
2018-03-02T13:41:04.540Z,2420
2018-03-02T13:42:04.540Z,2420
2018-03-02T13:43:04.912Z,2408
2018-03-02T13:44:05.180Z,2400
2018-03-02T13:45:04.462Z,2392
2018-03-02T13:46:05.211Z,2376
2018-03-02T13:47:05.320Z,2364
2018-03-02T13:48:05.350Z,2344
2018-03-02T13:49:05.232Z,2320
2018-03-02T13:50:05.112Z,2300
2018-03-02T13:51:06.213Z,2296
2018-03-02T13:52:05.739Z,2288
2018-03-02T13:53:05.661Z,2284
2018-03-02T13:54:06.082Z,2284
2018-03-02T13:55:06.658Z,2276
2018-03-02T13:56:05.769Z,2280
2018-03-02T13:57:06.222Z,2272
2018-03-02T13:58:06.553Z,2260
2018-03-02T13:59:06.574Z,2252
2018-03-02T14:00:19.809Z,2232
2018-03-02T14:01:06.526Z,2228
2018-03-02T14:02:06.828Z,2220
2018-03-02T14:03:06.935Z,2200
2018-03-02T14:04:07.135Z,2188
2018-03-02T14:05:07.273Z,2184
2018-03-02T14:06:06.963Z,2172
2018-03-02T14:07:08.102Z,2164
2018-03-02T14:08:07.275Z,2156
2018-03-02T14:09:07.231Z,2152
2018-03-02T14:10:07.563Z,2136
2018-03-02T14:11:07.800Z,2124
2018-03-02T14:12:07.683Z,2108
2018-03-02T14:13:07.480Z,2100
2018-03-02T14:14:08.454Z,2088
2018-03-02T14:15:08.390Z,2072
2018-03-02T14:16:08.106Z,2068
2018-03-02T14:17:08.348Z,2064
2018-03-02T14:18:08.433Z,2048
2018-03-02T14:19:08.353Z,2036
2018-03-02T14:20:08.207Z,2012
2018-03-02T14:21:08.472Z,1996
2018-03-02T14:22:09.114Z,1996
2018-03-02T14:23:09.174Z,1992
2018-03-02T14:24:09.340Z,1984
2018-03-02T14:25:09.855Z,1964
2018-03-02T14:26:10.003Z,1952
2018-03-02T14:27:10.230Z,1944
2018-03-02T14:28:10.421Z,1940
2018-03-02T14:29:10.541Z,1932
2018-03-02T14:30:11.314Z,1928
2018-03-02T14:31:10.665Z,1912
2018-03-02T14:32:11.186Z,1900
2018-03-02T14:33:10.711Z,1892
2018-03-02T14:34:11.087Z,1880
2018-03-02T14:35:11.121Z,1868
2018-03-02T14:36:10.724Z,1860
2018-03-02T14:37:11.300Z,1852
2018-03-02T14:38:11.284Z,1844
2018-03-02T14:39:11.297Z,1828
2018-03-02T14:40:12.077Z,1820
2018-03-02T14:41:12.014Z,1816
2018-03-02T14:42:11.770Z,1812
2018-03-02T14:43:12.428Z,1800
2018-03-02T14:44:11.630Z,1788
2018-03-02T14:45:12.534Z,1780
2018-03-02T14:46:12.203Z,1768
2018-03-02T14:47:12.460Z,1756
2018-03-02T14:48:12.577Z,1744
2018-03-02T14:49:12.940Z,1732
2018-03-02T14:50:12.998Z,1720
2018-03-02T14:51:13.346Z,1708
2018-03-02T14:52:13.622Z,1696
2018-03-02T14:53:13.325Z,1680
2018-03-02T14:54:13.165Z,1664
2018-03-02T14:55:13.293Z,1656
2018-03-02T14:56:13.726Z,1648
2018-03-02T14:57:13.910Z,1636
2018-03-02T14:58:14.136Z,1632
2018-03-02T14:59:14.423Z,1632
2018-03-02T15:00:20.596Z,1624
2018-03-02T15:01:21.356Z,1612
2018-03-02T15:02:21.083Z,1592
2018-03-02T15:03:22.711Z,1580
2018-03-02T15:04:21.737Z,1564
2018-03-02T15:05:21.152Z,1552
2018-03-02T15:06:22.008Z,1544
2018-03-02T15:07:21.539Z,1536
2018-03-02T15:08:21.798Z,1532
2018-03-02T15:09:22.202Z,1516
2018-03-02T15:10:22.751Z,1504
2018-03-02T15:11:22.430Z,1488
2018-03-02T15:12:22.907Z,1476
2018-03-02T15:13:23.332Z,1464
2018-03-02T15:14:23.252Z,1460
2018-03-02T15:15:23.637Z,1452
2018-03-02T15:16:23.300Z,1432
2018-03-02T15:17:23.453Z,1424
2018-03-02T15:18:23.527Z,1408
2018-03-02T15:19:25.778Z,1396
2018-03-02T15:20:24.626Z,1384
2018-03-02T15:21:24.915Z,1368
2018-03-02T15:22:25.213Z,1356
2018-03-02T15:23:24.912Z,1340
2018-03-02T15:24:25.226Z,1328
2018-03-02T15:25:24.202Z,1320
2018-03-02T15:26:25.116Z,1304
2018-03-02T15:27:25.309Z,1296
2018-03-02T15:28:24.921Z,1284
2018-03-02T15:29:25.724Z,1272
2018-03-02T15:30:24.998Z,1260
2018-03-02T15:31:26.146Z,1244
2018-03-02T15:32:26.546Z,1232
2018-03-02T15:33:26.184Z,1216
2018-03-02T15:34:27.637Z,1204
2018-03-02T15:35:26.230Z,1188
2018-03-02T15:36:26.105Z,1176
2018-03-02T15:37:26.552Z,1160
2018-03-02T15:38:27.257Z,1148
2018-03-02T15:39:26.880Z,1128
2018-03-02T15:40:26.721Z,1116
2018-03-02T15:41:26.232Z,1104
2018-03-02T15:42:26.011Z,1088
2018-03-02T15:43:26.265Z,1076
2018-03-02T15:44:25.916Z,1064
2018-03-02T15:45:26.477Z,1048
2018-03-02T15:46:25.923Z,1036
2018-03-02T15:47:28.012Z,1020
2018-03-02T15:48:28.201Z,1004
2018-03-02T15:49:27.981Z,992
2018-03-02T15:50:27.808Z,980
2018-03-02T15:51:26.954Z,960
2018-03-02T15:52:28.352Z,948
2018-03-02T15:53:27.737Z,932
2018-03-02T15:54:29.044Z,916
2018-03-02T15:55:28.508Z,900
2018-03-02T15:56:28.183Z,888
2018-03-02T15:57:28.577Z,868
2018-03-02T15:58:28.513Z,852
2018-03-02T15:59:28.512Z,836
2018-03-02T16:00:28.799Z,824
2018-03-02T16:01:28.741Z,808
2018-03-02T16:02:28.361Z,788
2018-03-02T16:03:26.997Z,772
2018-03-02T16:04:28.084Z,756
2018-03-02T16:05:28.006Z,736
2018-03-02T16:06:27.103Z,720
2018-03-02T16:07:26.745Z,700
2018-03-02T16:08:27.581Z,688
2018-03-02T16:09:27.368Z,672
2018-03-02T16:10:27.410Z,652
2018-03-02T16:11:27.730Z,636
2018-03-02T16:12:27.418Z,616
2018-03-02T16:13:27.470Z,600
2018-03-02T16:14:27.778Z,584
2018-03-02T16:15:27.766Z,564
2018-03-02T16:16:28.089Z,548
2018-03-02T16:17:27.784Z,528
2018-03-02T16:18:28.083Z,512
2018-03-02T16:19:27.916Z,496
2018-03-02T16:20:28.155Z,480
2018-03-02T16:21:28.380Z,464
2018-03-02T16:22:28.091Z,444
2018-03-02T16:23:28.317Z,432
2018-03-02T16:24:27.844Z,412
2018-03-02T16:25:28.051Z,400
2018-03-02T16:26:28.377Z,380
2018-03-02T16:27:28.382Z,364
2018-03-02T16:28:28.779Z,348
2018-03-02T16:29:28.573Z,332
2018-03-02T16:30:28.807Z,316
2018-03-02T16:31:28.564Z,300
2018-03-02T16:32:28.754Z,284
2018-03-02T16:33:29.157Z,272
2018-03-02T16:34:29.167Z,256
2018-03-02T16:35:29.762Z,240
2018-03-02T16:36:29.776Z,228
2018-03-02T16:37:30.026Z,216
2018-03-02T16:38:29.540Z,200
2018-03-02T16:39:30.159Z,184
2018-03-02T16:40:29.863Z,172
2018-03-02T16:41:29.906Z,156
2018-03-02T16:42:30.463Z,148
2018-03-02T16:43:30.258Z,136
2018-03-02T16:44:29.980Z,124
2018-03-02T16:45:30.822Z,108
2018-03-02T16:46:30.856Z,100
2018-03-02T16:47:30.757Z,88
2018-03-02T16:48:30.893Z,84
2018-03-02T16:49:30.413Z,72
2018-03-02T16:50:30.781Z,64
2018-03-02T16:51:31.044Z,56
2018-03-02T16:52:30.552Z,52
2018-03-02T16:53:31.097Z,44
2018-03-02T16:54:31.083Z,40
2018-03-02T16:55:31.148Z,32
2018-03-02T16:56:30.902Z,32
2018-03-02T16:57:31.268Z,24
2018-03-02T16:58:30.982Z,24
2018-03-02T16:59:31.081Z,20
2018-03-02T17:00:30.918Z,16
2018-03-02T17:01:31.281Z,16
2018-03-02T17:02:31.473Z,12
2018-03-02T17:03:31.582Z,12
2018-03-02T17:04:31.956Z,8
2018-03-02T17:05:32.125Z,8
2018-03-02T17:06:32.797Z,8
2018-03-02T17:07:32.462Z,8
2018-03-02T17:08:33.336Z,4
2018-03-02T17:09:32.741Z,8
2018-03-02T17:10:33.154Z,4
2018-03-02T17:11:32.967Z,4
2018-03-02T17:12:33.235Z,0
2018-03-02T17:13:33.115Z,4
2018-03-02T17:14:33.722Z,4
2018-03-02T17:15:34.094Z,4
2018-03-02T17:16:34.449Z,0
2018-03-02T17:17:34.847Z,0
2018-03-02T17:18:34.994Z,0
2018-03-02T17:19:35.083Z,0
2018-03-02T17:20:35.027Z,0
2018-03-02T17:21:35.443Z,0
2018-03-02T17:22:35.316Z,0
2018-03-02T17:23:35.964Z,0
2018-03-02T17:24:35.590Z,0
2018-03-02T17:25:35.954Z,0
2018-03-02T17:26:36.239Z,0
2018-03-02T17:27:36.127Z,0
2018-03-02T17:28:36.551Z,4
2018-03-02T17:29:36.368Z,4
2018-03-02T17:30:36.520Z,4
2018-03-02T17:31:37.090Z,4
2018-03-02T17:32:36.985Z,4
2018-03-02T17:33:37.080Z,4
2018-03-02T17:34:37.256Z,0
2018-03-02T17:35:36.566Z,4
2018-03-02T17:36:37.226Z,0
2018-03-02T17:37:37.361Z,4
2018-03-02T17:38:38.180Z,0
2018-03-02T17:39:38.302Z,4
2018-03-02T17:40:37.995Z,4
2018-03-02T17:41:39.407Z,4
2018-03-02T17:42:38.785Z,4
2018-03-02T17:43:38.240Z,4
2018-03-02T17:44:39.532Z,4
2018-03-02T17:45:39.366Z,4
2018-03-02T17:46:39.092Z,4
2018-03-02T17:47:39.252Z,4
2018-03-02T17:48:40.375Z,4
2018-03-02T17:49:39.195Z,4
2018-03-02T17:50:38.971Z,4
2018-03-02T17:51:39.401Z,4
2018-03-02T17:52:40.306Z,4
2018-03-02T17:53:39.681Z,4
2018-03-02T17:54:41.031Z,4
2018-03-02T17:55:40.267Z,4
2018-03-02T17:56:40.026Z,0
2018-03-02T17:57:41.034Z,4
2018-03-02T17:58:41.686Z,4
2018-03-02T17:59:41.327Z,4
2018-03-02T18:00:41.809Z,4
2018-03-02T18:01:41.847Z,4
2018-03-02T18:02:43.023Z,4
2018-03-02T18:03:43.370Z,4
2018-03-02T18:04:43.330Z,4
2018-03-02T18:05:43.321Z,4
2018-03-02T18:06:42.424Z,4
2018-03-02T18:07:42.979Z,4
2018-03-02T18:08:41.685Z,4
2018-03-02T18:09:43.905Z,4
2018-03-02T18:10:43.770Z,4
2018-03-02T18:11:42.271Z,4
2018-03-02T18:12:42.193Z,4
2018-03-02T18:13:41.357Z,4
2018-03-02T18:14:43.703Z,4
2018-03-02T18:15:45.762Z,4
2018-03-02T18:16:44.348Z,4
2018-03-02T18:18:06.430Z,4
2018-03-02T18:18:45.246Z,0
2018-03-02T18:19:43.130Z,0
2018-03-02T18:20:43.980Z,0
2018-03-02T18:21:44.245Z,0
2018-03-02T18:22:43.927Z,0
2018-03-02T18:23:43.416Z,0
2018-03-02T18:24:43.858Z,0
2018-03-02T18:25:43.262Z,0
2018-03-02T18:26:43.794Z,0
2018-03-02T18:27:44.425Z,0
2018-03-02T18:28:43.980Z,0
2018-03-02T18:29:43.505Z,0
2018-03-02T18:30:43.533Z,0
2018-03-02T18:31:44.568Z,0
2018-03-02T18:32:44.410Z,0
2018-03-02T18:33:44.185Z,0
2018-03-02T18:34:42.855Z,0
